Helotes, Texas
Current Conditions -  °F | °C
As of 9:35 PM on Monday 20 Oct 2014 (Local Time) from K5C1 Reporting Station
Clear Clear  
Wind Chill: 70°   Ceiling: Unl
Heat Index: 70°   Visibility: 10mi
Dew Point: 55°   Wind: 0mph
Humidity: 60%   Direction: NA
Pressure: 30.06"   Gusts: NA
Location:  29.58°N, 98.69°W
Report Text: K5C1 210235Z AUTO 00000KT 10SM CLR 21/13 A3006 RMK AO1
Loading
Personal Weather Stations






























Interactive Weather Map
Tropical Storm Tracking
New forecast layout! Learn more

10-Day Weather Forecast

Advertisements
Track Severe Weather on mobile